createdAt,value
2023-02-10T00:01:26.598Z,-0.15
2023-02-10T00:03:54.394Z,-0.10
2023-02-10T00:06:24.622Z,-0.03
2023-02-10T00:08:53.213Z,-0.01
2023-02-10T00:11:20.156Z,-0.11
2023-02-10T00:13:46.921Z,-0.21
2023-02-10T00:16:15.765Z,-0.23
2023-02-10T00:18:42.557Z,-0.19
2023-02-10T00:21:16.048Z,-0.23
2023-02-10T00:23:43.993Z,-0.09
2023-02-10T00:26:13.028Z,-0.13
2023-02-10T00:28:40.238Z,-0.23
2023-02-10T00:31:08.101Z,-0.15
2023-02-10T00:33:34.867Z,-0.15
2023-02-10T00:36:06.761Z,-0.09
2023-02-10T00:38:33.949Z,-0.04
2023-02-10T00:41:04.646Z,0.03
2023-02-10T00:43:31.840Z,-0.01
2023-02-10T00:45:58.948Z,0.14
2023-02-10T00:48:25.803Z,-0.03
2023-02-10T00:50:52.268Z,0.02
2023-02-10T00:53:21.379Z,0.05
2023-02-10T00:55:48.346Z,0.04
2023-02-10T00:58:15.242Z,0.11
2023-02-10T01:00:42.910Z,-0.03
2023-02-10T01:03:09.685Z,0.00
2023-02-10T01:05:36.504Z,-0.07
2023-02-10T01:08:03.045Z,-0.20
2023-02-10T01:10:29.493Z,-0.05
2023-02-10T01:12:56.072Z,-0.16
2023-02-10T01:15:22.461Z,-0.22
2023-02-10T01:17:49.086Z,-0.12
2023-02-10T01:20:15.875Z,-0.08
2023-02-10T01:22:42.917Z,-0.09
2023-02-10T01:25:09.329Z,0.01
2023-02-10T01:27:36.375Z,0.05
2023-02-10T01:30:03.748Z,0.10
2023-02-10T01:32:30.558Z,0.16
2023-02-10T01:34:57.197Z,0.15
2023-02-10T01:37:23.599Z,-0.01
2023-02-10T01:39:50.146Z,0.02
2023-02-10T01:42:17.756Z,0.09
2023-02-10T01:44:44.581Z,0.12
2023-02-10T01:47:12.415Z,-0.01
2023-02-10T01:49:45.669Z,0.18
2023-02-10T01:52:16.853Z,0.09
2023-02-10T01:54:53.725Z,0.37
2023-02-10T01:57:21.165Z,0.48
2023-02-10T01:59:48.574Z,0.07
2023-02-10T02:02:16.997Z,0.11
2023-02-10T02:04:54.409Z,0.10
2023-02-10T02:07:26.591Z,0.08
2023-02-10T02:09:55.025Z,0.12
2023-02-10T02:12:49.244Z,0.30
2023-02-10T02:15:28.242Z,0.35
2023-02-10T02:18:21.261Z,0.15
2023-02-10T02:21:07.931Z,0.12
2023-02-10T02:23:48.004Z,0.15
2023-02-10T02:26:29.627Z,0.29
2023-02-10T02:29:30.027Z,0.29
2023-02-10T02:32:08.581Z,0.42
2023-02-10T02:34:51.656Z,0.30
2023-02-10T02:37:23.726Z,0.35
2023-02-10T02:39:52.672Z,0.22
2023-02-10T02:42:23.879Z,0.33
2023-02-10T02:44:56.679Z,0.34
2023-02-10T02:47:32.462Z,0.39
2023-02-10T02:50:17.886Z,0.33
2023-02-10T02:53:07.094Z,0.20
2023-02-10T02:55:40.022Z,0.03
2023-02-10T02:58:18.238Z,0.05
2023-02-10T03:00:47.013Z,0.31
2023-02-10T03:03:14.265Z,0.18
2023-02-10T03:05:41.756Z,0.14
2023-02-10T03:08:08.552Z,0.21
2023-02-10T03:10:35.147Z,0.27
2023-02-10T03:13:02.096Z,0.34
2023-02-10T03:15:28.799Z,0.37
2023-02-10T03:17:55.387Z,0.30
2023-02-10T03:20:22.504Z,0.21
2023-02-10T03:22:49.573Z,0.23
2023-02-10T03:25:15.950Z,0.24
2023-02-10T03:27:42.709Z,0.34
2023-02-10T03:30:09.814Z,0.47
2023-02-10T03:32:36.374Z,0.43
2023-02-10T03:35:03.293Z,0.28
2023-02-10T03:37:29.877Z,0.32
2023-02-10T03:39:56.642Z,0.50
2023-02-10T03:42:23.487Z,0.39
2023-02-10T03:44:50.118Z,0.24
2023-02-10T03:47:16.986Z,0.28
2023-02-10T03:49:43.772Z,0.42
2023-02-10T03:52:10.256Z,0.38
2023-02-10T03:54:37.250Z,0.45
2023-02-10T03:57:04.131Z,0.55
2023-02-10T03:59:30.566Z,0.50
2023-02-10T04:01:58.209Z,0.31
2023-02-10T04:04:26.215Z,0.43
2023-02-10T04:06:52.647Z,0.58
2023-02-10T04:09:19.933Z,0.42
2023-02-10T04:11:47.185Z,0.20
2023-02-10T04:14:13.838Z,0.32
2023-02-10T04:16:40.298Z,0.34
2023-02-10T04:19:07.116Z,0.44
2023-02-10T04:21:34.312Z,0.44
2023-02-10T04:24:00.969Z,0.46
2023-02-10T04:26:27.989Z,0.35
2023-02-10T04:28:55.152Z,0.39
2023-02-10T04:31:21.791Z,0.48
2023-02-10T04:33:50.001Z,0.49
2023-02-10T04:36:16.528Z,0.58
2023-02-10T04:38:43.123Z,0.63
2023-02-10T04:41:10.187Z,0.55
2023-02-10T04:43:36.957Z,0.47
2023-02-10T04:46:04.907Z,0.38
2023-02-10T04:48:31.918Z,0.34
2023-02-10T04:50:58.580Z,0.47
2023-02-10T04:53:25.234Z,0.51
2023-02-10T04:55:52.047Z,0.35
2023-02-10T04:58:18.736Z,0.23
2023-02-10T05:00:45.432Z,0.31
2023-02-10T05:03:12.505Z,0.29
2023-02-10T05:05:40.894Z,0.19
2023-02-10T05:08:07.880Z,0.19
2023-02-10T05:10:34.679Z,0.25
2023-02-10T05:13:01.528Z,0.20
2023-02-10T05:15:28.105Z,-0.03
2023-02-10T05:17:54.698Z,-0.09
2023-02-10T05:20:21.959Z,-0.10
2023-02-10T05:22:49.991Z,-0.09
2023-02-10T05:25:17.514Z,-0.16
2023-02-10T05:27:44.520Z,-0.26
2023-02-10T05:30:13.992Z,-0.27
2023-02-10T05:32:42.619Z,-0.31
2023-02-10T05:35:10.440Z,-0.26
2023-02-10T05:37:38.043Z,-0.33
2023-02-10T05:40:06.331Z,-0.21
2023-02-10T05:42:33.568Z,-0.46
2023-02-10T05:45:00.169Z,-0.51
2023-02-10T05:47:27.026Z,-0.46
2023-02-10T05:49:54.619Z,-0.36
2023-02-10T05:52:22.204Z,-0.24
2023-02-10T05:54:48.663Z,-0.17
2023-02-10T05:57:15.213Z,-0.15
2023-02-10T05:59:42.997Z,-0.14
2023-02-10T06:02:09.882Z,-0.20
2023-02-10T06:04:36.451Z,-0.37
2023-02-10T06:07:03.364Z,-0.54
2023-02-10T06:09:30.308Z,-0.60
2023-02-10T06:11:56.750Z,-0.69
2023-02-10T06:14:23.421Z,-0.79
2023-02-10T06:16:50.034Z,-0.96
2023-02-10T06:19:20.476Z,-0.96
2023-02-10T06:21:47.738Z,-0.89
2023-02-10T06:24:14.957Z,-0.71
2023-02-10T06:26:41.846Z,-0.63
2023-02-10T06:29:08.376Z,-0.60
2023-02-10T06:31:35.044Z,-0.64
2023-02-10T06:34:01.645Z,-0.69
2023-02-10T06:36:28.244Z,-0.76
2023-02-10T06:38:55.258Z,-0.68
2023-02-10T06:41:21.741Z,-0.58
2023-02-10T06:43:48.567Z,-0.59
2023-02-10T06:46:16.450Z,-0.57
2023-02-10T06:48:44.234Z,-0.64
2023-02-10T06:51:10.723Z,-0.64
2023-02-10T06:53:39.378Z,-0.62
2023-02-10T06:56:06.930Z,-0.51
2023-02-10T06:58:33.516Z,-0.55
2023-02-10T07:01:01.730Z,-0.45
2023-02-10T07:03:29.626Z,-0.43
2023-02-10T07:05:56.369Z,-0.31
2023-02-10T07:08:22.877Z,-0.23
2023-02-10T07:10:50.387Z,-0.09
2023-02-10T07:13:16.966Z,-0.10
2023-02-10T07:15:43.440Z,-0.06
2023-02-10T07:18:09.976Z,-0.02
2023-02-10T07:20:36.593Z,0.02
2023-02-10T07:23:03.612Z,-0.01
2023-02-10T07:25:31.176Z,0.05
2023-02-10T07:27:58.155Z,0.16
2023-02-10T07:30:25.068Z,0.12
2023-02-10T07:32:51.684Z,0.30
2023-02-10T07:35:18.406Z,0.35
2023-02-10T07:37:45.693Z,0.37
2023-02-10T07:40:12.573Z,0.32
2023-02-10T07:42:39.870Z,0.50
2023-02-10T07:45:06.887Z,0.50
2023-02-10T07:47:34.328Z,0.52
2023-02-10T07:50:00.850Z,0.56
2023-02-10T07:52:27.361Z,0.79
2023-02-10T07:54:53.942Z,0.84
2023-02-10T07:57:20.384Z,0.61
2023-02-10T07:59:47.281Z,0.68
2023-02-10T08:02:14.010Z,0.59
2023-02-10T08:04:40.770Z,0.62
2023-02-10T08:07:07.315Z,0.64
2023-02-10T08:09:33.885Z,0.64
2023-02-10T08:12:00.364Z,0.90
2023-02-10T08:14:27.284Z,1.04
2023-02-10T08:16:54.060Z,0.88
2023-02-10T08:19:20.751Z,0.98
2023-02-10T08:21:47.179Z,0.94
2023-02-10T08:24:14.000Z,0.92
2023-02-10T08:26:42.904Z,0.95
2023-02-10T08:29:09.874Z,1.06
2023-02-10T08:31:36.768Z,1.32
2023-02-10T08:34:04.575Z,1.62
2023-02-10T08:36:31.879Z,1.74
2023-02-10T08:38:58.245Z,1.65
2023-02-10T08:41:24.747Z,1.96
2023-02-10T08:43:51.474Z,2.17
2023-02-10T08:46:18.059Z,2.36
2023-02-10T08:48:45.127Z,2.44
2023-02-10T08:51:13.936Z,2.62
2023-02-10T08:53:41.521Z,2.89
2023-02-10T08:56:10.753Z,2.96
2023-02-10T08:58:38.239Z,2.89
2023-02-10T09:01:17.797Z,2.96
2023-02-10T09:03:45.160Z,2.69
2023-02-10T09:06:18.114Z,2.57
2023-02-10T09:08:48.187Z,2.66
2023-02-10T09:11:16.580Z,2.53
2023-02-10T09:13:43.125Z,2.59
2023-02-10T09:16:09.967Z,2.49
2023-02-10T09:18:36.430Z,2.27
2023-02-10T09:21:04.653Z,2.37
2023-02-10T09:23:31.619Z,2.27
2023-02-10T09:26:00.448Z,2.29
2023-02-10T09:28:27.841Z,2.12
2023-02-10T09:30:55.379Z,2.23
2023-02-10T09:33:22.651Z,2.43
2023-02-10T09:35:49.779Z,2.46
2023-02-10T09:38:17.008Z,2.35
2023-02-10T09:41:05.608Z,2.33
2023-02-10T09:43:32.657Z,2.54
2023-02-10T09:46:09.878Z,2.68
2023-02-10T09:49:07.666Z,2.82
2023-02-10T09:52:18.553Z,2.99
2023-02-10T09:54:47.193Z,3.43
2023-02-10T09:57:22.161Z,3.42
2023-02-10T09:59:52.569Z,3.37
2023-02-10T10:02:31.876Z,3.63
2023-02-10T10:05:01.306Z,4.22
2023-02-10T10:07:32.688Z,4.02
2023-02-10T10:10:08.645Z,4.21
2023-02-10T10:12:35.382Z,4.40
2023-02-10T10:15:01.988Z,4.54
2023-02-10T10:17:58.057Z,4.49
2023-02-10T10:20:54.369Z,4.80
2023-02-10T10:23:45.384Z,5.72
2023-02-10T10:26:37.491Z,6.21
2023-02-10T10:29:37.962Z,6.45
2023-02-10T10:32:16.131Z,6.29
2023-02-10T10:34:52.248Z,6.23
2023-02-10T10:37:23.344Z,6.34
2023-02-10T10:40:04.040Z,6.13
2023-02-10T10:42:49.994Z,6.37
2023-02-10T10:45:21.214Z,6.37
2023-02-10T10:48:06.034Z,6.64
2023-02-10T10:50:33.771Z,6.84
2023-02-10T10:53:04.156Z,6.54
2023-02-10T10:55:41.273Z,6.69
2023-02-10T10:58:38.932Z,6.62
2023-02-10T11:01:06.780Z,6.51
2023-02-10T11:03:34.625Z,6.88
2023-02-10T11:06:09.281Z,7.24
2023-02-10T11:08:42.896Z,7.11
2023-02-10T11:11:31.465Z,6.86
2023-02-10T11:14:04.078Z,7.04
2023-02-10T11:16:40.168Z,6.96
2023-02-10T11:19:22.296Z,7.35
2023-02-10T11:21:49.843Z,7.31
2023-02-10T11:24:22.736Z,7.30
2023-02-10T11:27:04.104Z,7.51
2023-02-10T11:29:33.844Z,7.46
2023-02-10T11:32:01.243Z,7.57
2023-02-10T11:34:38.492Z,7.79
2023-02-10T11:37:14.298Z,7.97
2023-02-10T11:39:45.315Z,7.89
2023-02-10T11:42:23.845Z,8.21
2023-02-10T11:44:56.017Z,8.21
2023-02-10T11:47:22.647Z,8.37
2023-02-10T11:49:52.636Z,9.27
2023-02-10T11:52:23.078Z,9.24
2023-02-10T11:54:51.737Z,8.74
2023-02-10T11:58:02.342Z,9.38
2023-02-10T12:00:38.782Z,11.55
2023-02-10T12:03:16.936Z,12.47
2023-02-10T12:06:10.000Z,12.29
2023-02-10T12:08:48.853Z,10.18
2023-02-10T12:11:37.892Z,9.71
2023-02-10T12:14:30.077Z,9.79
2023-02-10T12:17:21.429Z,9.20
2023-02-10T12:20:04.247Z,8.49
2023-02-10T12:23:08.331Z,7.92
2023-02-10T12:25:34.754Z,7.37
2023-02-10T12:28:39.068Z,7.31
2023-02-10T12:31:23.870Z,7.35
2023-02-10T12:34:19.257Z,7.18
2023-02-10T12:37:47.770Z,7.30
2023-02-10T12:40:38.110Z,7.24
2023-02-10T12:43:31.904Z,7.14
2023-02-10T12:46:15.349Z,6.90
2023-02-10T12:49:13.518Z,6.94
2023-02-10T12:51:52.898Z,7.00
2023-02-10T12:54:41.201Z,7.12
2023-02-10T12:57:15.307Z,7.15
2023-02-10T13:00:02.359Z,7.09
2023-02-10T13:02:45.772Z,7.41
2023-02-10T13:05:22.011Z,7.36
2023-02-10T13:07:58.784Z,7.34
2023-02-10T13:10:43.356Z,7.36
2023-02-10T13:13:19.341Z,7.49
2023-02-10T13:15:58.997Z,7.29
2023-02-10T13:18:31.984Z,7.27
2023-02-10T13:21:16.708Z,7.24
2023-02-10T13:23:51.364Z,7.24
2023-02-10T13:26:20.565Z,7.15
2023-02-10T13:29:12.026Z,7.39
2023-02-10T13:32:05.622Z,7.60
2023-02-10T13:34:59.247Z,8.10
2023-02-10T13:37:42.252Z,8.22
2023-02-10T13:40:22.859Z,7.71
2023-02-10T13:42:53.737Z,7.77
2023-02-10T13:45:27.285Z,7.84
2023-02-10T13:48:07.185Z,8.11
2023-02-10T13:50:48.995Z,7.78
2023-02-10T13:53:34.333Z,7.61
2023-02-10T13:56:13.284Z,7.80
2023-02-10T13:58:55.812Z,7.42
2023-02-10T14:01:32.735Z,7.43
2023-02-10T14:03:59.394Z,7.17
2023-02-10T14:06:38.273Z,7.07
2023-02-10T14:09:19.422Z,7.30
2023-02-10T14:11:47.536Z,7.51
2023-02-10T14:14:21.170Z,7.46
2023-02-10T14:16:51.270Z,7.55
2023-02-10T14:19:36.490Z,7.67
2023-02-10T14:22:05.310Z,7.27
2023-02-10T14:24:50.468Z,7.66
2023-02-10T14:27:20.280Z,7.71
2023-02-10T14:30:23.842Z,7.74
2023-02-10T14:32:52.335Z,7.97
2023-02-10T14:35:28.486Z,7.90
2023-02-10T14:37:58.042Z,8.13
2023-02-10T14:40:26.684Z,8.20
2023-02-10T14:42:53.400Z,8.17
2023-02-10T14:45:21.882Z,8.08
2023-02-10T14:47:50.195Z,8.06
2023-02-10T14:50:39.308Z,7.77
2023-02-10T14:53:06.361Z,7.56
2023-02-10T14:55:38.046Z,7.45
2023-02-10T14:58:16.720Z,7.33
2023-02-10T15:01:10.040Z,7.42
2023-02-10T15:03:37.351Z,7.49
2023-02-10T15:06:04.854Z,7.60
2023-02-10T15:08:38.656Z,7.58
2023-02-10T15:11:13.589Z,8.01
2023-02-10T15:13:49.147Z,7.69
2023-02-10T15:16:17.814Z,7.64
2023-02-10T15:18:48.336Z,7.58
2023-02-10T15:21:29.498Z,7.34
2023-02-10T15:23:56.053Z,7.44
2023-02-10T15:26:28.639Z,7.08
2023-02-10T15:29:06.119Z,6.91
2023-02-10T15:31:33.470Z,6.96
2023-02-10T15:34:02.666Z,6.86
2023-02-10T15:36:34.908Z,6.45
2023-02-10T15:39:05.692Z,6.34
2023-02-10T15:41:42.534Z,6.19
2023-02-10T15:44:18.089Z,6.31
2023-02-10T15:46:49.637Z,6.11
2023-02-10T15:49:19.490Z,6.14
2023-02-10T15:51:50.720Z,6.13
2023-02-10T15:54:22.071Z,6.11
2023-02-10T15:57:04.102Z,6.05
2023-02-10T15:59:32.591Z,5.84
2023-02-10T16:02:03.521Z,5.70
2023-02-10T16:04:32.587Z,5.52
2023-02-10T16:07:00.729Z,5.16
2023-02-10T16:09:29.083Z,5.05
2023-02-10T16:11:55.887Z,4.99
2023-02-10T16:14:22.763Z,4.59
2023-02-10T16:16:53.746Z,4.16
2023-02-10T16:19:23.060Z,4.03
2023-02-10T16:21:56.414Z,3.84
2023-02-10T16:24:29.665Z,3.67
2023-02-10T16:26:57.585Z,3.50
2023-02-10T16:29:26.773Z,3.52
2023-02-10T16:31:54.378Z,3.74
2023-02-10T16:34:21.090Z,3.80
2023-02-10T16:36:48.489Z,3.62
2023-02-10T16:39:20.881Z,3.62
2023-02-10T16:41:49.065Z,3.58
2023-02-10T16:44:17.609Z,3.67
2023-02-10T16:46:44.411Z,3.56
2023-02-10T16:49:12.565Z,3.35
2023-02-10T16:51:39.169Z,3.14
2023-02-10T16:54:10.139Z,2.98
2023-02-10T16:56:38.524Z,2.89
2023-02-10T16:59:07.122Z,2.97
2023-02-10T17:01:34.044Z,3.04
2023-02-10T17:04:02.116Z,3.39
2023-02-10T17:06:31.096Z,3.53
2023-02-10T17:08:58.686Z,3.15
2023-02-10T17:11:25.811Z,2.88
2023-02-10T17:13:52.295Z,2.78
2023-02-10T17:16:31.103Z,2.52
2023-02-10T17:18:58.157Z,2.40
2023-02-10T17:21:24.570Z,2.27
2023-02-10T17:23:52.454Z,2.21
2023-02-10T17:26:18.856Z,2.00
2023-02-10T17:28:45.320Z,1.85
2023-02-10T17:31:16.707Z,1.81
2023-02-10T17:33:49.287Z,1.85
2023-02-10T17:36:20.447Z,1.99
2023-02-10T17:38:50.520Z,2.08
2023-02-10T17:41:20.618Z,2.08
2023-02-10T17:43:47.718Z,2.18
2023-02-10T17:46:14.789Z,2.31
2023-02-10T17:48:41.453Z,2.30
2023-02-10T17:51:12.757Z,2.34
2023-02-10T17:53:39.678Z,2.35
2023-02-10T17:56:07.804Z,2.37
2023-02-10T17:58:34.645Z,2.23
2023-02-10T18:01:01.902Z,2.59
2023-02-10T18:03:28.879Z,2.55
2023-02-10T18:05:56.888Z,2.45
2023-02-10T18:08:24.577Z,2.35
2023-02-10T18:10:51.288Z,2.10
2023-02-10T18:13:18.223Z,1.96
2023-02-10T18:15:45.408Z,1.96
2023-02-10T18:18:13.417Z,2.00
2023-02-10T18:20:44.224Z,2.02
2023-02-10T18:23:11.030Z,2.00
2023-02-10T18:25:38.752Z,1.91
2023-02-10T18:28:05.961Z,2.03
2023-02-10T18:30:32.544Z,1.87
2023-02-10T18:32:59.122Z,1.76
2023-02-10T18:35:25.620Z,1.81
2023-02-10T18:37:52.149Z,1.72
2023-02-10T18:40:19.760Z,1.80
2023-02-10T18:42:46.415Z,2.06
2023-02-10T18:45:13.440Z,2.22
2023-02-10T18:47:40.101Z,2.21
2023-02-10T18:50:07.218Z,1.98
2023-02-10T18:52:33.818Z,1.99
2023-02-10T18:55:00.429Z,1.96
2023-02-10T18:57:29.009Z,2.04
2023-02-10T18:59:55.826Z,1.85
2023-02-10T19:02:23.747Z,1.78
2023-02-10T19:04:51.187Z,2.00
2023-02-10T19:07:19.432Z,1.79
2023-02-10T19:09:46.028Z,1.88
2023-02-10T19:12:12.477Z,1.93
2023-02-10T19:14:39.426Z,1.80
2023-02-10T19:17:06.581Z,1.89
2023-02-10T19:19:33.142Z,2.11
2023-02-10T19:21:59.568Z,2.08
2023-02-10T19:24:26.607Z,2.02
2023-02-10T19:26:53.195Z,2.06
2023-02-10T19:29:19.775Z,2.02
2023-02-10T19:31:46.305Z,2.12
2023-02-10T19:34:13.312Z,2.20
2023-02-10T19:36:40.071Z,2.15
2023-02-10T19:39:06.727Z,2.03
2023-02-10T19:41:34.025Z,1.95
2023-02-10T19:44:01.070Z,1.90
2023-02-10T19:46:27.697Z,1.96
2023-02-10T19:48:54.358Z,2.09
2023-02-10T19:51:24.438Z,2.17
2023-02-10T19:53:52.711Z,2.14
2023-02-10T19:56:19.486Z,2.03
2023-02-10T19:58:46.326Z,1.96
2023-02-10T20:01:16.314Z,1.97
2023-02-10T20:03:48.355Z,2.04
2023-02-10T20:06:18.700Z,2.05
2023-02-10T20:08:45.726Z,2.05
2023-02-10T20:11:14.907Z,2.08
2023-02-10T20:13:41.611Z,2.26
2023-02-10T20:16:08.818Z,2.39
2023-02-10T20:18:36.216Z,2.42
2023-02-10T20:21:06.967Z,2.40
2023-02-10T20:23:36.319Z,2.35
2023-02-10T20:26:03.430Z,2.31
2023-02-10T20:28:30.597Z,2.46
2023-02-10T20:31:00.582Z,2.47
2023-02-10T20:33:28.681Z,2.31
2023-02-10T20:35:59.851Z,2.38
2023-02-10T20:38:27.617Z,2.27
2023-02-10T20:40:59.692Z,2.29
2023-02-10T20:43:27.382Z,2.32
2023-02-10T20:45:53.778Z,2.26
2023-02-10T20:48:20.286Z,2.16
2023-02-10T20:50:46.847Z,2.06
2023-02-10T20:53:13.540Z,2.08
2023-02-10T20:55:40.794Z,2.15
2023-02-10T20:58:08.113Z,2.27
2023-02-10T21:00:34.822Z,2.32
2023-02-10T21:03:01.861Z,2.32
2023-02-10T21:05:28.926Z,2.36
2023-02-10T21:07:56.495Z,2.42
2023-02-10T21:10:23.559Z,2.38
2023-02-10T21:12:50.160Z,2.35
2023-02-10T21:15:16.591Z,2.30
2023-02-10T21:17:43.247Z,2.30
2023-02-10T21:20:10.127Z,2.24
2023-02-10T21:22:37.157Z,2.27
2023-02-10T21:25:05.736Z,2.28
2023-02-10T21:27:39.212Z,2.31
2023-02-10T21:30:07.043Z,2.36
2023-02-10T21:32:34.442Z,2.30
2023-02-10T21:35:01.347Z,2.28
2023-02-10T21:37:30.121Z,2.31
2023-02-10T21:39:56.955Z,2.27
2023-02-10T21:42:23.502Z,2.28
2023-02-10T21:44:49.992Z,2.19
2023-02-10T21:47:16.983Z,2.11
2023-02-10T21:49:43.589Z,2.15
2023-02-10T21:52:11.418Z,2.08
2023-02-10T21:54:39.912Z,2.15
2023-02-10T21:57:08.766Z,2.16
2023-02-10T21:59:36.205Z,2.04
2023-02-10T22:02:05.434Z,1.93
2023-02-10T22:04:33.401Z,1.98
2023-02-10T22:06:59.816Z,1.92
2023-02-10T22:09:26.265Z,1.90
2023-02-10T22:11:53.861Z,1.90
2023-02-10T22:14:20.434Z,1.96
2023-02-10T22:16:47.514Z,2.00
2023-02-10T22:19:14.963Z,2.08
2023-02-10T22:21:42.261Z,2.11
2023-02-10T22:24:13.460Z,2.29
2023-02-10T22:26:40.250Z,2.31
2023-02-10T22:29:06.680Z,2.15
2023-02-10T22:31:34.261Z,2.21
2023-02-10T22:34:03.833Z,2.10
2023-02-10T22:36:31.328Z,2.13
2023-02-10T22:38:59.075Z,2.05
2023-02-10T22:41:28.780Z,2.06
2023-02-10T22:43:59.750Z,2.09
2023-02-10T22:46:26.858Z,2.20
2023-02-10T22:48:54.248Z,2.29
2023-02-10T22:51:24.460Z,2.31
2023-02-10T22:53:55.669Z,2.21
2023-02-10T22:56:25.923Z,2.29
2023-02-10T22:58:53.012Z,2.30
2023-02-10T23:01:30.169Z,2.20
2023-02-10T23:03:58.117Z,2.16
2023-02-10T23:06:26.784Z,2.35
2023-02-10T23:08:54.284Z,2.29
2023-02-10T23:11:22.523Z,2.30
2023-02-10T23:13:49.364Z,2.30
2023-02-10T23:16:16.489Z,2.55
2023-02-10T23:18:43.155Z,2.40
2023-02-10T23:21:14.802Z,2.32
2023-02-10T23:23:41.994Z,2.27
2023-02-10T23:26:08.883Z,2.31
2023-02-10T23:28:37.853Z,2.37
2023-02-10T23:31:15.913Z,2.38
2023-02-10T23:33:43.425Z,2.31
2023-02-10T23:36:10.819Z,2.35
2023-02-10T23:38:37.378Z,2.30
2023-02-10T23:41:04.311Z,2.32
2023-02-10T23:43:30.934Z,2.29
2023-02-10T23:45:57.665Z,2.35
2023-02-10T23:48:24.322Z,2.46
2023-02-10T23:50:51.194Z,2.38
2023-02-10T23:53:17.682Z,2.34
2023-02-10T23:55:44.268Z,2.38
2023-02-10T23:58:11.576Z,2.34
